24h
CUSTOMER SERVICE:
Saartelennuliinid: +372 58856336 (24/7)
Airport ticket info +372 6058887; +372 55603687

19.02.2019 õhtune Transaviabaltika lend KTB676 Tallinn - Kärdla ja KTB677 Kärdla – Tallinn väljalend jääb ära. Lennu ära jäämise põhjustab ilmastikuolud Kärdla Lennuväljal. Reisijatele võimaldatakse tasuta lennupileti ümberbroneerimine reisija soovi kohasele mõnele teisele Tallinn-Kärdla või Kärdla-Tallinn lennule. Reisijatele kes ei soovi lennupileti ümberbroneerimist teisele lennule tagastatakse piletiraha. Oma soovist tuleb teada anda e-mailile [email protected] Lisainformatsioon telefonil 58856336

EEKA Kärdla lennuväli FCEO32 EETN 191300

TAF EEKA 191300Z 1914/1920 23014G24KT 3000 RADZ BR OVC003

TEMPO 1914/1917 1200 RADZ BR BECMG 1917/1919 9999 SCT008 SCT015CB BKN020=

METAR EEKA 191350Z 22009KT 2600 -RA BR OVC002 03/03 Q0997=
Date: 
19/02/2019